Time;durP1;ratioP1;P1;durP2;ratioP2;P2;SDS_P1;SDS_P2;PMS_P1;PMS_P2;Temp;Humidity;BMP_temperature;BMP_pressure;BME280_temperature;BME280_humidity;BME280_pressure;Samples;Min_cycle;Max_cycle;Signal;HPM_P1;HPM_P2
2023/09/12 00:01:55;;;;;;;14.80;7.85;;;;;;;11.49;82.21;100238.25;10021863;29;20046;-82
2023/09/12 00:06:56;;;;;;;13.77;7.50;;;;;;;11.27;82.01;100216.75;10021873;29;20085;-81
2023/09/12 00:11:57;;;;;;;13.60;8.02;;;;;;;11.20;82.29;100245.88;10022291;29;20056;-82
2023/09/12 00:16:57;;;;;;;12.38;7.50;;;;;;;10.79;82.69;100201.88;10022022;29;20388;-82
2023/09/12 00:21:59;;;;;;;19.83;8.20;;;;;;;11.02;82.71;100271.88;10021729;29;20054;-82
2023/09/12 00:26:59;;;;;;;21.83;8.32;;;;;;;10.93;83.07;100270.25;10021075;29;20094;-82
2023/09/12 00:32:00;;;;;;;16.67;8.60;;;;;;;10.89;82.95;100269.78;10020890;29;20042;-81
2023/09/12 00:37:01;;;;;;;20.92;8.52;;;;;;;10.77;83.09;100265.84;10021301;29;20049;-82
2023/09/12 00:42:02;;;;;;;24.55;8.07;;;;;;;10.70;83.13;100259.53;10021076;29;20046;-82
2023/09/12 00:47:03;;;;;;;22.77;8.63;;;;;;;10.57;83.31;100264.56;10020317;29;20110;-82
2023/09/12 00:52:04;;;;;;;11.80;8.00;;;;;;;10.31;83.51;100223.13;10020500;29;20133;-82
2023/09/12 00:57:06;;;;;;;19.27;8.23;;;;;;;10.76;83.52;100289.91;10034856;29;20042;-82
2023/09/12 01:02:07;;;;;;;36.83;9.10;;;;;;;10.63;83.30;100250.59;10019438;29;20045;-82
2023/09/12 01:07:08;;;;;;;27.65;8.57;;;;;;;10.67;83.40;100270.50;10019817;29;20169;-82
2023/09/12 01:12:08;;;;;;;27.75;8.35;;;;;;;10.55;83.32;100243.47;10033529;29;20065;-82
2023/09/12 01:17:09;;;;;;;21.42;8.27;;;;;;;10.33;83.60;100204.38;10020137;29;20174;-82
2023/09/12 01:22:29;;;;;;;20.00;8.32;;;;;;;10.90;84.88;100270.59;10018184;29;20046;-82
2023/09/12 01:27:37;;;;;;;43.22;9.13;;;;;;;10.68;84.22;100240.31;10034805;29;20053;-82
2023/09/12 01:32:39;;;;;;;22.63;8.30;;;;;;;10.65;83.50;100277.81;10019368;29;20057;-82
2023/09/12 01:37:40;;;;;;;16.42;9.00;;;;;;;10.50;83.48;100253.78;10019195;29;20042;-81
2023/09/12 01:42:44;;;;;;;11.15;7.35;;;;;;;10.70;84.05;100280.78;10018538;29;20073;-82
2023/09/12 01:47:47;;;;;;;;;;;;;;;10.80;84.76;100286.75;10019623;29;20057;-81
2023/09/12 01:52:48;;;;;;;21.60;7.85;;;;;;;10.11;83.27;100217.31;10019125;29;19921;-82
2023/09/12 01:57:49;;;;;;;17.02;8.02;;;;;;;10.30;83.64;100245.34;10018177;29;20191;-82
2023/09/12 02:02:50;;;;;;;14.32;7.40;;;;;;;10.26;84.28;100279.38;10032912;29;20129;-82
2023/09/12 02:07:51;;;;;;;74.95;10.88;;;;;;;10.17;84.64;100280.38;10015830;29;20062;-82
2023/09/12 02:12:51;;;;;;;37.17;8.23;;;;;;;10.21;84.85;100284.31;10018158;29;20054;-82
2023/09/12 02:17:52;;;;;;;66.50;10.48;;;;;;;9.90;84.95;100254.13;10018320;29;20056;-82
2023/09/12 02:22:53;;;;;;;21.00;7.60;;;;;;;10.13;85.03;100284.31;10017760;29;20052;-82
2023/09/12 02:27:54;;;;;;;26.75;8.88;;;;;;;10.01;85.20;100291.78;10017628;29;20046;-81
2023/09/12 02:32:54;;;;;;;60.78;9.35;;;;;;;9.99;85.72;100292.94;10020798;29;20046;-82
2023/09/12 02:37:55;;;;;;;18.23;7.68;;;;;;;10.10;85.51;100276.69;10024679;29;20460;-82
2023/09/12 02:42:56;;;;;;;46.03;9.77;;;;;;;10.15;85.61;100295.63;10024848;29;20410;-82
2023/09/12 02:47:56;;;;;;;39.72;8.85;;;;;;;10.10;85.70;100294.44;10025248;29;20052;-82
2023/09/12 02:52:57;;;;;;;77.63;10.40;;;;;;;9.73;85.85;100234.75;10025468;29;20064;-83
2023/09/12 02:57:58;;;;;;;84.35;10.50;;;;;;;9.81;86.15;100256.81;10024663;29;20042;-76
2023/09/12 03:02:59;;;;;;;95.32;10.70;;;;;;;10.13;86.15;100292.28;10025145;29;20045;-76
2023/09/12 03:07:59;;;;;;;107.07;12.43;;;;;;;10.13;86.02;100280.84;10023322;29;20104;-77
2023/09/12 03:13:00;;;;;;;16.30;7.85;;;;;;;10.48;85.66;100325.66;10019452;29;20048;-76
2023/09/12 03:18:01;;;;;;;56.63;10.50;;;;;;;10.59;85.28;100294.41;10024228;29;20046;-76
2023/09/12 03:23:02;;;;;;;15.88;6.93;;;;;;;10.93;84.36;100328.72;10023135;29;20134;-76
2023/09/12 03:28:03;;;;;;;19.17;7.65;;;;;;;11.22;83.66;100338.78;10024295;29;20484;-76
2023/09/12 03:33:05;;;;;;;64.53;8.95;;;;;;;11.52;82.54;100337.13;10023650;29;20041;-76
2023/09/12 03:38:06;;;;;;;24.73;7.75;;;;;;;11.86;81.96;100312.84;10022155;29;20053;-76
2023/09/12 03:43:07;;;;;;;45.03;8.10;;;;;;;12.60;80.85;100330.06;10022265;29;20120;-76
2023/09/12 03:48:07;;;;;;;46.13;28.70;;;;;;;13.30;78.68;100331.47;10022493;29;20133;-75
2023/09/12 03:53:09;;;;;;;97.88;45.47;;;;;;;14.07;76.40;100337.06;10038152;29;20076;-78
2023/09/12 03:58:09;;;;;;;47.05;22.00;;;;;;;14.82;73.84;100316.09;10060918;29;20049;-83
2023/09/12 04:03:10;;;;;;;30.42;9.73;;;;;;;15.31;71.19;100272.28;10060600;29;20109;-79
2023/09/12 04:08:11;;;;;;;27.73;12.07;;;;;;;16.46;68.47;100315.16;10059508;29;20057;-87
2023/09/12 04:13:12;;;;;;;16.42;8.27;;;;;;;16.06;66.42;100261.53;10059975;29;20046;-80
2023/09/12 04:18:13;;;;;;;14.68;6.68;;;;;;;15.50;66.51;100300.16;10060681;29;20098;-96
2023/09/12 04:23:14;;;;;;;20.15;6.40;;;;;;;15.32;66.21;100354.22;10063498;29;20040;-77
2023/09/12 04:28:15;;;;;;;17.60;6.80;;;;;;;14.90;67.09;100369.44;10060174;29;20128;-74
2023/09/12 04:33:15;;;;;;;14.00;6.95;;;;;;;14.38;67.65;100312.66;10059443;29;20047;-83
2023/09/12 04:38:16;;;;;;;13.65;6.95;;;;;;;14.22;68.24;100309.44;10059689;29;20050;-82
2023/09/12 04:43:17;;;;;;;22.40;7.18;;;;;;;13.74;67.36;100215.75;10058666;29;20050;-77
2023/09/12 04:48:18;;;;;;;24.55;6.68;;;;;;;14.75;67.05;100350.81;10058499;29;20041;-90
2023/09/12 04:53:18;;;;;;;22.63;6.72;;;;;;;14.81;66.91;100346.53;10057999;29;20572;-89
2023/09/12 04:58:19;;;;;;;43.83;7.80;;;;;;;15.13;67.28;100377.16;10058014;29;20046;-87
2023/09/12 05:03:20;;;;;;;32.42;7.53;;;;;;;15.44;66.43;100365.19;10058303;29;20459;-88
2023/09/12 05:08:21;;;;;;;14.75;6.55;;;;;;;15.86;65.57;100369.50;10058364;29;20062;-88
2023/09/12 05:13:22;;;;;;;17.05;6.53;;;;;;;15.97;64.67;100326.06;10057966;29;20050;-87
2023/09/12 05:18:23;;;;;;;17.95;6.72;;;;;;;16.71;63.46;100353.69;10058012;29;20049;-88
2023/09/12 05:23:23;;;;;;;19.55;6.97;;;;;;;17.22;61.32;100358.34;10058702;29;20045;-88
2023/09/12 05:28:24;;;;;;;15.43;7.30;;;;;;;17.31;60.74;100332.94;10057134;29;20462;-88
2023/09/12 05:33:25;;;;;;;56.30;8.25;;;;;;;17.96;60.44;100370.47;10056976;29;20042;-88
2023/09/12 05:38:25;;;;;;;24.15;7.18;;;;;;;18.71;58.14;100373.22;10057066;29;20041;-88
2023/09/12 05:43:26;;;;;;;18.30;7.15;;;;;;;19.13;56.92;100389.63;10057865;29;20064;-87
2023/09/12 05:48:27;;;;;;;18.88;7.20;;;;;;;19.27;56.28;100379.53;10057025;29;20037;-87
2023/09/12 05:53:28;;;;;;;19.38;6.55;;;;;;;19.35;55.22;100387.34;10057239;29;20045;-88
2023/09/12 05:58:29;;;;;;;18.08;5.82;;;;;;;19.66;53.86;100382.03;10059892;29;20472;-86
2023/09/12 06:03:30;;;;;;;17.02;5.57;;;;;;;19.87;54.01;100395.00;10057664;29;20046;-86
2023/09/12 06:08:31;;;;;;;15.00;6.38;;;;;;;19.20;53.73;100340.25;10060028;29;20058;-87
2023/09/12 06:13:32;;;;;;;21.73;5.30;;;;;;;19.05;54.31;100389.91;10064943;29;20544;-86
2023/09/12 06:18:34;;;;;;;28.98;6.22;;;;;;;18.83;55.45;100375.22;10064209;29;20057;-87
2023/09/12 06:23:35;;;;;;;51.25;6.78;;;;;;;18.74;55.96;100392.69;10064334;29;20048;-87
2023/09/12 06:28:35;;;;;;;11.93;5.53;;;;;;;19.32;54.75;100395.00;10064442;29;20053;-87
2023/09/12 06:33:37;;;;;;;22.05;5.07;;;;;;;19.60;52.77;100338.72;10063988;29;20037;-87
2023/09/12 06:38:38;;;;;;;18.90;5.25;;;;;;;19.78;52.90;100369.41;10064238;29;20391;-87
2023/09/12 06:43:39;;;;;;;17.27;5.28;;;;;;;20.12;51.64;100397.56;10064148;29;20045;-87
2023/09/12 06:48:40;;;;;;;15.60;5.07;;;;;;;20.63;50.29;100384.56;10063809;29;20527;-87
2023/09/12 06:53:40;;;;;;;13.82;4.80;;;;;;;21.18;49.35;100379.63;10063411;29;20110;-87
2023/09/12 06:58:41;;;;;;;16.98;7.20;;;;;;;21.14;48.34;100288.47;10062820;29;20077;-87
2023/09/12 07:03:42;;;;;;;16.35;4.68;;;;;;;22.13;46.85;100372.03;10062940;29;20049;-87
2023/09/12 07:08:43;;;;;;;9.32;4.20;;;;;;;22.29;46.88;100327.16;10063477;29;20061;-87
2023/09/12 07:13:43;;;;;;;16.25;4.50;;;;;;;22.60;46.87;100360.13;10061919;29;20506;-86
2023/09/12 07:18:44;;;;;;;11.10;5.13;;;;;;;22.95;45.89;100346.34;10062589;29;20109;-86
2023/09/12 07:23:45;;;;;;;16.08;4.72;;;;;;;23.31;44.88;100349.50;10062268;29;20052;-86
2023/09/12 07:28:46;;;;;;;12.60;4.13;;;;;;;23.65;43.98;100361.03;10062050;29;20053;-87
2023/09/12 07:33:46;;;;;;;8.00;4.57;;;;;;;23.31;43.45;100303.44;10061828;29;20129;-86
2023/09/12 07:38:48;;;;;;;10.80;3.92;;;;;;;23.56;43.58;100359.84;10063272;29;20387;-87
2023/09/12 07:43:48;;;;;;;12.70;3.78;;;;;;;23.35;43.41;100345.22;10061024;29;20041;-85
2023/09/12 07:48:49;;;;;;;8.13;3.80;;;;;;;23.97;42.51;100358.41;10061289;29;20046;-85
2023/09/12 07:53:50;;;;;;;11.75;3.85;;;;;;;23.91;40.67;100294.31;10061771;29;20041;-84
2023/09/12 07:58:51;;;;;;;22.52;4.28;;;;;;;24.42;40.10;100305.63;10060849;29;20105;-84
2023/09/12 08:03:51;;;;;;;33.72;5.13;;;;;;;24.61;40.72;100295.16;10060803;29;20133;-84
2023/09/12 08:08:52;;;;;;;10.77;4.00;;;;;;;25.24;39.80;100328.66;10060178;29;20065;-83
2023/09/12 08:13:53;;;;;;;5.22;3.00;;;;;;;25.18;37.65;100285.41;10060078;29;20045;-84
2023/09/12 08:18:54;;;;;;;7.28;3.00;;;;;;;25.35;37.54;100334.16;10060149;29;20105;-84
2023/09/12 08:23:54;;;;;;;10.43;3.65;;;;;;;24.92;37.62;100308.91;10059718;29;20093;-84
2023/09/12 08:28:55;;;;;;;8.90;4.80;;;;;;;24.38;38.60;100271.91;10059289;29;20073;-84
2023/09/12 08:33:56;;;;;;;7.07;3.47;;;;;;;24.42;38.63;100273.03;10058418;29;20056;-84
2023/09/12 08:38:56;;;;;;;7.82;3.22;;;;;;;24.54;38.95;100314.41;10059354;29;20052;-85
2023/09/12 08:43:57;;;;;;;10.48;3.30;;;;;;;24.39;38.22;100316.97;10058460;29;20052;-84
2023/09/12 08:48:59;;;;;;;15.30;3.78;;;;;;;24.33;39.01;100263.72;10059092;29;20046;-85
2023/09/12 08:54:00;;;;;;;11.65;3.38;;;;;;;25.09;38.09;100304.09;10058402;29;20053;-84
2023/09/12 08:59:04;;;;;;;18.60;4.03;;;;;;;25.89;37.49;100304.66;10059170;29;20045;-86
2023/09/12 09:04:04;;;;;;;;;;;;;;;26.73;37.50;100304.34;10058951;29;20049;-84
2023/09/12 09:09:07;;;;;;;18.15;4.15;;;;;;;25.82;36.13;100268.72;10058466;29;19931;-84
2023/09/12 09:14:08;;;;;;;8.43;3.40;;;;;;;26.01;35.83;100295.41;10058719;29;20148;-84
2023/09/12 09:19:11;;;;;;;30.42;4.95;;;;;;;26.11;36.01;100281.78;10057815;29;20458;-85
2023/09/12 09:24:17;;;;;;;6.00;2.85;;;;;;;26.18;35.54;100307.66;10057426;29;20045;-85
2023/09/12 09:29:20;;;;;;;7.88;3.63;;;;;;;26.33;35.15;100281.53;10057779;29;20037;-83
2023/09/12 09:34:22;;;;;;;6.78;3.13;;;;;;;26.86;34.31;100303.75;10057499;29;20044;-84
2023/09/12 09:39:25;;;;;;;8.05;3.30;;;;;;;27.13;34.00;100297.94;10057468;29;20049;-83
2023/09/12 09:44:27;;;;;;;8.63;3.20;;;;;;;26.29;33.54;100232.22;10055857;29;20102;-83
2023/09/12 09:49:30;;;;;;;4.85;3.17;;;;;;;26.38;34.34;100282.34;10057758;29;20049;-83
2023/09/12 09:54:32;;;;;;;7.97;3.47;;;;;;;26.51;33.74;100242.03;10057122;29;20041;-83
2023/09/12 09:59:33;;;;;;;36.85;4.90;;;;;;;26.32;34.36;100253.44;10056890;29;20046;-82
2023/09/12 10:04:35;;;;;;;6.45;3.30;;;;;;;25.90;34.69;100292.66;10057337;29;20402;-84
2023/09/12 10:09:36;;;;;;;38.60;4.47;;;;;;;25.51;35.50;100238.72;10055679;29;20066;-82
2023/09/12 10:14:40;;;;;;;28.40;9.35;;;;;;;25.76;34.98;100285.28;10056167;29;20038;-83
2023/09/12 10:20:04;;;;;;;7.55;6.03;;;;;;;26.03;33.23;100264.13;10056621;29;20053;-82
2023/09/12 10:25:06;;;;;;;12.27;4.43;;;;;;;26.60;33.70;100243.09;10056537;29;20042;-82
2023/09/12 10:30:08;;;;;;;21.65;6.32;;;;;;;26.84;32.80;100255.00;10056484;29;20045;-83
2023/09/12 10:35:09;;;;;;;19.27;6.78;;;;;;;26.78;33.12;100267.00;10055835;29;20122;-84
2023/09/12 10:40:11;;;;;;;10.07;5.30;;;;;;;25.96;34.15;100274.44;10055618;29;20118;-81
2023/09/12 10:45:11;;;;;;;32.38;6.55;;;;;;;25.22;35.35;100275.66;10055629;29;20453;-82
2023/09/12 10:50:12;;;;;;;22.35;9.25;;;;;;;24.46;35.51;100208.97;10055572;29;20080;-82
2023/09/12 10:55:18;;;;;;;10.57;4.38;;;;;;;24.68;35.78;100287.59;10059614;29;20045;-82
2023/09/12 11:00:19;;;;;;;19.65;6.28;;;;;;;25.37;35.17;100274.84;10063257;29;20144;-82
2023/09/12 11:05:28;;;;;;;6.70;4.13;;;;;;;25.92;33.38;100282.34;10062256;29;20042;-82
2023/09/12 11:10:31;;;;;;;7.15;4.53;;;;;;;25.96;33.05;100256.19;10061831;29;20114;-83
2023/09/12 11:15:34;;;;;;;7.17;4.03;;;;;;;26.13;33.49;100269.53;10062324;29;20632;-82
2023/09/12 11:21:03;;;;;;;12.10;4.60;;;;;;;26.06;32.57;100249.97;10062285;29;20052;-81
2023/09/12 11:26:09;;;;;;;9.68;3.72;;;;;;;26.40;32.61;100257.53;10061642;29;20045;-83
2023/09/12 11:31:10;;;;;;;14.15;4.57;;;;;;;26.25;31.71;100217.53;10061805;29;20131;-81
2023/09/12 11:36:13;;;;;;;8.55;4.13;;;;;;;26.30;31.32;100231.13;10061099;29;20490;-81
2023/09/12 11:41:14;;;;;;;35.85;5.32;;;;;;;26.12;31.56;100190.88;10075812;29;20048;-81
2023/09/12 11:46:15;;;;;;;11.68;4.65;;;;;;;26.55;31.74;100233.00;10061449;29;20498;-81
2023/09/12 11:51:16;;;;;;;10.57;5.15;;;;;;;26.73;31.61;100238.94;10061303;29;20045;-81
2023/09/12 11:56:17;;;;;;;11.68;6.82;;;;;;;26.58;31.75;100221.56;10060625;29;20049;-81
2023/09/12 12:01:18;;;;;;;14.32;7.28;;;;;;;25.96;32.19;100212.66;10061069;29;20053;-80
2023/09/12 12:06:19;;;;;;;31.58;7.57;;;;;;;25.38;32.76;100192.22;10058871;29;20037;-81
2023/09/12 12:11:19;;;;;;;6.97;4.93;;;;;;;25.23;33.21;100220.19;10060563;29;20128;-81
2023/09/12 12:16:20;;;;;;;21.45;5.47;;;;;;;24.72;33.54;100182.75;10058875;29;20052;-80
2023/09/12 12:21:21;;;;;;;10.52;4.95;;;;;;;24.82;33.84;100218.09;10059856;29;20057;-81
2023/09/12 12:26:24;;;;;;;15.23;5.20;;;;;;;25.23;33.41;100241.94;10035872;29;20481;-81
2023/09/12 12:31:26;;;;;;;12.80;5.23;;;;;;;25.64;33.64;100233.88;10021638;29;20483;-81
2023/09/12 12:36:27;;;;;;;11.20;4.83;;;;;;;25.67;33.08;100197.97;10021525;29;20041;-81
2023/09/12 12:41:29;;;;;;;11.48;5.30;;;;;;;25.65;32.48;100181.91;10037877;29;20053;-81
2023/09/12 12:46:30;;;;;;;6.60;4.07;;;;;;;26.07;31.45;100218.91;10055895;29;20069;-81
2023/09/12 12:51:33;;;;;;;8.90;4.63;;;;;;;26.22;31.33;100236.31;10058485;29;20131;-81
2023/09/12 12:56:34;;;;;;;17.50;4.60;;;;;;;26.36;31.50;100231.94;10058253;29;20132;-81
2023/09/12 13:01:37;;;;;;;19.17;4.68;;;;;;;26.39;31.52;100239.56;10058112;29;20510;-81
2023/09/12 13:06:39;;;;;;;44.88;7.95;;;;;;;26.25;31.30;100217.53;10057223;29;20061;-79
2023/09/12 13:11:40;;;;;;;13.07;4.50;;;;;;;26.22;31.35;100239.06;10059309;29;20057;-80
2023/09/12 13:16:41;;;;;;;7.90;3.80;;;;;;;25.89;30.87;100194.97;10057990;29;20045;-80
2023/09/12 13:21:42;;;;;;;15.82;6.38;;;;;;;25.99;30.83;100205.03;10057249;29;20126;-80
2023/09/12 13:26:43;;;;;;;56.30;7.75;;;;;;;26.13;31.15;100236.88;10057471;29;20069;-78
2023/09/12 13:31:44;;;;;;;22.67;6.82;;;;;;;26.24;32.30;100245.84;10057230;29;20116;-80
2023/09/12 13:36:45;;;;;;;26.10;5.22;;;;;;;25.98;31.15;100197.97;10056923;29;20061;-80
2023/09/12 13:41:45;;;;;;;17.75;4.82;;;;;;;26.10;30.91;100231.97;10071658;29;20041;-80
2023/09/12 13:46:47;;;;;;;9.82;4.30;;;;;;;25.90;30.81;100242.88;10057334;29;20049;-80
2023/09/12 13:51:48;;;;;;;8.18;3.83;;;;;;;25.47;31.03;100239.53;10056127;29;20124;-81
2023/09/12 13:56:48;;;;;;;19.15;4.47;;;;;;;24.98;31.61;100205.41;10054771;29;20201;-78
2023/09/12 14:01:49;;;;;;;19.42;4.75;;;;;;;24.75;31.44;100209.41;10047639;29;20076;-80
2023/09/12 14:06:50;;;;;;;26.15;4.90;;;;;;;25.04;32.00;100258.69;10042238;29;20060;-80
2023/09/12 14:11:50;;;;;;;123.72;11.38;;;;;;;24.71;32.90;100237.34;10047300;29;20081;-79
2023/09/12 14:16:51;;;;;;;34.65;6.10;;;;;;;24.64;32.38;100250.34;10056530;29;20094;-78
2023/09/12 14:21:52;;;;;;;69.80;10.27;;;;;;;24.47;32.82;100243.22;10056059;29;20434;-79
2023/09/12 14:26:53;;;;;;;109.10;9.73;;;;;;;24.39;32.56;100254.53;10055833;29;20038;-77
2023/09/12 14:31:57;;;;;;;118.18;8.80;;;;;;;24.31;33.24;100269.41;10063085;29;20045;-78
2023/09/12 14:36:59;;;;;;;40.30;6.72;;;;;;;24.12;32.47;100263.56;10061603;29;20037;-78
2023/09/12 14:42:02;;;;;;;61.78;6.85;;;;;;;23.58;32.99;100205.84;10060118;29;20071;-80
2023/09/12 14:47:03;;;;;;;152.75;13.20;;;;;;;23.74;34.45;100271.91;10063187;29;20050;-78
2023/09/12 14:52:04;;;;;;;41.95;6.57;;;;;;;23.31;34.70;100252.75;10075835;29;20102;-78
2023/09/12 14:57:05;;;;;;;17.98;4.28;;;;;;;23.34;34.33;100286.66;10063800;29;20052;-78
2023/09/12 15:02:05;;;;;;;16.55;3.60;;;;;;;23.12;35.08;100289.38;10062997;29;20421;-79
2023/09/12 15:07:06;;;;;;;47.80;5.15;;;;;;;22.73;35.25;100259.59;10062749;29;20058;-79
2023/09/12 15:12:07;;;;;;;41.05;5.15;;;;;;;22.94;34.37;100307.56;10057650;29;20502;-77
2023/09/12 15:17:08;;;;;;;20.05;4.68;;;;;;;22.55;33.99;100261.53;10040323;29;20048;-80
2023/09/12 15:22:09;;;;;;;43.83;20.52;;;;;;;22.72;33.92;100299.38;10051568;29;20086;-79
2023/09/12 15:27:10;;;;;;;54.42;25.33;;;;;;;22.68;33.82;100310.97;10062212;29;20049;-78
2023/09/12 15:32:10;;;;;;;28.02;16.27;;;;;;;22.53;33.75;100317.00;10061928;29;20110;-79
2023/09/12 15:37:12;;;;;;;19.80;8.80;;;;;;;22.34;33.67;100319.94;10061792;29;20410;-78
2023/09/12 15:42:13;;;;;;;70.35;37.30;;;;;;;22.08;33.79;100291.63;10060714;29;20048;-78
2023/09/12 15:47:14;;;;;;;147.13;83.85;;;;;;;22.04;33.87;100328.31;10060926;29;20396;-78
2023/09/12 15:52:15;;;;;;;73.30;36.97;;;;;;;21.95;34.00;100343.31;10059685;29;20159;-79
2023/09/12 15:57:15;;;;;;;29.20;15.95;;;;;;;21.83;34.08;100340.66;10057332;29;20052;-79
2023/09/12 16:02:16;;;;;;;29.98;13.95;;;;;;;21.62;34.30;100335.94;10059671;29;20045;-79
2023/09/12 16:07:17;;;;;;;23.23;12.85;;;;;;;21.09;34.46;100286.53;10060908;29;20053;-78
2023/09/12 16:12:18;;;;;;;16.33;10.05;;;;;;;21.06;34.56;100308.59;10061476;29;20080;-78
2023/09/12 16:17:20;;;;;;;20.67;11.48;;;;;;;21.19;35.19;100377.75;10059083;29;20118;-78
2023/09/12 16:22:21;;;;;;;23.35;9.57;;;;;;;21.02;35.30;100379.53;10058252;29;20049;-78
2023/09/12 16:27:22;;;;;;;11.15;5.88;;;;;;;20.63;35.73;100354.88;10060241;29;20421;-78
2023/09/12 16:32:23;;;;;;;15.73;7.55;;;;;;;20.67;36.05;100404.63;10059385;29;20045;-79
2023/09/12 16:37:24;;;;;;;20.23;9.52;;;;;;;20.49;36.45;100414.44;10050539;29;20571;-79
2023/09/12 16:42:26;;;;;;;22.17;8.48;;;;;;;20.21;36.54;100403.44;10046207;29;20448;-80
2023/09/12 16:47:27;;;;;;;21.08;6.75;;;;;;;19.68;37.58;100342.16;10048479;29;20140;-76
2023/09/12 16:52:30;;;;;;;31.00;5.38;;;;;;;20.03;39.08;100428.59;10047677;29;20044;-72
2023/09/12 16:57:31;;;;;;;13.48;5.47;;;;;;;19.90;38.81;100421.50;10050086;29;20046;-71
2023/09/12 17:02:34;;;;;;;13.55;5.47;;;;;;;19.87;38.88;100424.66;10049630;29;20600;-75
2023/09/12 17:07:46;;;;;;;;;;;;;;;19.97;38.10;100435.72;10040293;29;20053;-75
2023/09/12 17:12:47;;;;;;;17.50;6.22;;;;;;;19.38;38.65;100370.72;10058915;29;19924;-74
2023/09/12 17:17:48;;;;;;;22.58;5.85;;;;;;;19.60;38.87;100437.63;10045214;29;20041;-82
2023/09/12 17:22:49;;;;;;;18.10;5.78;;;;;;;19.43;39.33;100442.75;10045309;29;20073;-73
2023/09/12 17:27:51;;;;;;;17.92;6.32;;;;;;;19.26;39.97;100442.50;10060497;29;20442;-77
2023/09/12 17:32:52;;;;;;;13.73;6.70;;;;;;;18.95;40.00;100411.13;10055389;29;20087;-78
2023/09/12 17:37:53;;;;;;;18.33;6.28;;;;;;;18.97;40.58;100435.97;10058203;29;20057;-73
2023/09/12 17:42:57;;;;;;;23.80;7.00;;;;;;;18.73;40.90;100432.25;10056859;29;20057;-75
2023/09/12 17:47:58;;;;;;;17.30;7.23;;;;;;;18.27;41.15;100362.63;10035721;29;20056;-75
2023/09/12 17:53:00;;;;;;;27.40;10.38;;;;;;;18.46;41.53;100421.66;10016398;29;20046;-72
2023/09/12 17:58:01;;;;;;;34.53;12.00;;;;;;;18.35;42.52;100437.66;10019064;29;20042;-72
2023/09/12 18:03:02;;;;;;;21.95;9.60;;;;;;;18.16;43.56;100426.00;10017645;29;20490;-84
2023/09/12 18:08:03;;;;;;;18.85;7.57;;;;;;;17.74;44.59;100394.13;10019218;29;20093;-79
2023/09/12 18:13:04;;;;;;;23.15;8.18;;;;;;;17.91;44.51;100432.09;10018548;29;20046;-80
2023/09/12 18:18:05;;;;;;;17.23;6.72;;;;;;;17.54;44.50;100404.94;10018325;29;20072;-80
2023/09/12 18:23:06;;;;;;;36.85;8.90;;;;;;;17.14;46.04;100363.13;10017956;29;20132;-81
2023/09/12 18:28:06;;;;;;;25.73;9.30;;;;;;;17.44;46.54;100435.94;10016835;29;20046;-79
2023/09/12 18:33:07;;;;;;;30.73;13.10;;;;;;;17.48;46.57;100453.31;10018151;29;20132;-80
2023/09/12 18:38:08;;;;;;;20.13;9.07;;;;;;;17.32;46.91;100454.59;10017735;29;20578;-80
2023/09/12 18:43:09;;;;;;;14.25;6.53;;;;;;;17.08;48.33;100453.38;10017314;29;20070;-86
2023/09/12 18:48:10;;;;;;;22.92;6.90;;;;;;;16.55;50.10;100439.94;10018042;29;20406;-85
2023/09/12 18:53:14;;;;;;;15.43;5.93;;;;;;;16.31;50.37;100425.25;10018037;29;20069;-87
2023/09/12 18:58:15;;;;;;;;;;;;;;;16.55;50.54;100467.56;10018743;29;20050;-85
2023/09/12 19:03:17;;;;;;;10.20;4.82;;;;;;;15.89;51.13;100438.75;10017525;29;19920;-85
2023/09/12 19:08:18;;;;;;;10.18;4.90;;;;;;;15.85;52.81;100469.63;10017589;29;20062;-85
2023/09/12 19:13:18;;;;;;;17.83;5.70;;;;;;;15.73;54.14;100471.22;10017724;29;20042;-85
2023/09/12 19:18:19;;;;;;;12.27;5.03;;;;;;;15.60;55.56;100471.13;10023792;29;20473;-85
2023/09/12 19:23:20;;;;;;;18.80;5.25;;;;;;;15.49;56.09;100461.78;10023925;29;20106;-86
2023/09/12 19:28:20;;;;;;;19.77;5.70;;;;;;;15.34;56.97;100466.44;10023487;29;20049;-86
2023/09/12 19:33:21;;;;;;;11.10;5.15;;;;;;;15.33;56.94;100470.13;10023264;29;20034;-86
2023/09/12 19:38:22;;;;;;;15.73;5.65;;;;;;;15.23;58.15;100462.47;10022040;29;20060;-85
2023/09/12 19:43:23;;;;;;;32.30;6.55;;;;;;;14.87;59.13;100434.00;10023059;29;20566;-86
2023/09/12 19:48:24;;;;;;;21.38;6.60;;;;;;;14.89;60.18;100445.31;10023400;29;20125;-86
2023/09/12 19:53:25;;;;;;;14.63;6.47;;;;;;;14.88;59.76;100441.00;10023224;29;20136;-86
2023/09/12 19:58:26;;;;;;;17.80;6.18;;;;;;;14.42;60.15;100403.97;10036500;29;20405;-85
2023/09/12 20:03:27;;;;;;;16.58;5.78;;;;;;;14.68;59.57;100437.34;10022164;29;20049;-85
2023/09/12 20:08:28;;;;;;;10.60;6.18;;;;;;;14.79;59.80;100466.22;10023291;29;20050;-86
2023/09/12 20:13:29;;;;;;;15.02;6.05;;;;;;;14.56;60.38;100466.44;10021865;29;20046;-86
2023/09/12 20:18:29;;;;;;;34.30;6.95;;;;;;;14.18;61.46;100450.59;10021659;29;20057;-86
2023/09/12 20:23:30;;;;;;;9.30;5.45;;;;;;;14.25;61.08;100453.34;10022480;29;20061;-86
2023/09/12 20:28:31;;;;;;;14.73;6.22;;;;;;;14.00;61.20;100426.13;10021206;29;20050;-86
2023/09/12 20:33:32;;;;;;;19.33;6.20;;;;;;;14.20;60.90;100477.13;10022792;29;20053;-86
2023/09/12 20:38:33;;;;;;;18.70;6.07;;;;;;;14.10;61.73;100472.91;10021499;29;20054;-87
2023/09/12 20:43:34;;;;;;;18.05;5.97;;;;;;;14.08;61.71;100480.28;10021482;29;20045;-86
2023/09/12 20:48:37;;;;;;;13.57;6.57;;;;;;;14.10;61.51;100477.44;10021175;29;20132;-87
2023/09/12 20:53:39;;;;;;;11.43;5.85;;;;;;;13.99;62.11;100472.56;10020284;29;20041;-87
2023/09/12 20:58:40;;;;;;;9.07;5.80;;;;;;;13.84;63.02;100472.59;10020587;29;20049;-87
2023/09/12 21:03:42;;;;;;;11.02;5.53;;;;;;;13.57;63.53;100432.19;10020576;29;20517;-87
2023/09/12 21:08:43;;;;;;;21.08;6.05;;;;;;;13.51;64.60;100445.44;10020236;29;20157;-87
2023/09/12 21:13:43;;;;;;;26.50;6.38;;;;;;;13.47;64.62;100419.13;10020680;29;20141;-86
2023/09/12 21:18:44;;;;;;;26.25;6.82;;;;;;;13.61;65.12;100451.31;10019350;29;20046;-87
2023/09/12 21:23:45;;;;;;;16.30;9.10;;;;;;;13.55;64.96;100452.91;10019536;29;20121;-87
2023/09/12 21:28:46;;;;;;;24.08;10.00;;;;;;;13.57;64.95;100448.22;10019531;29;20046;-86
2023/09/12 21:33:47;;;;;;;11.23;7.70;;;;;;;13.57;65.16;100463.41;10020497;29;20056;-87
2023/09/12 21:38:47;;;;;;;12.90;7.15;;;;;;;13.41;65.04;100443.06;10019460;29;20086;-87
2023/09/12 21:43:48;;;;;;;21.40;8.18;;;;;;;13.31;65.22;100446.03;10019337;29;20495;-87
2023/09/12 21:48:49;;;;;;;12.13;6.50;;;;;;;13.37;65.54;100455.09;10018857;29;20048;-87
2023/09/12 21:53:50;;;;;;;13.60;6.43;;;;;;;13.55;65.31;100466.28;10019438;29;20038;-87
2023/09/12 21:58:51;;;;;;;12.80;6.60;;;;;;;13.52;65.13;100453.28;10017531;29;20046;-87
2023/09/12 22:03:52;;;;;;;9.55;5.90;;;;;;;13.23;65.20;100403.38;10018898;29;20479;-87
2023/09/12 22:08:53;;;;;;;13.13;6.15;;;;;;;13.32;65.96;100428.16;10018767;29;20065;-87
2023/09/12 22:13:53;;;;;;;15.32;6.15;;;;;;;13.05;65.88;100390.41;10017666;29;20069;-88
2023/09/12 22:18:54;;;;;;;11.50;6.97;;;;;;;13.26;66.76;100451.06;10018038;29;20049;-87
2023/09/12 22:23:55;;;;;;;250.68;21.23;;;;;;;13.15;67.42;100456.81;10017934;29;20136;-87
2023/09/12 22:28:56;;;;;;;29.08;8.30;;;;;;;13.17;67.72;100452.97;10017905;29;20124;-87
2023/09/12 22:33:57;;;;;;;46.78;8.68;;;;;;;13.16;67.89;100450.47;10017932;29;20120;-86
2023/09/12 22:38:58;;;;;;;20.95;6.80;;;;;;;12.98;68.26;100440.13;10018559;29;20407;-88
2023/09/12 22:43:59;;;;;;;21.75;5.68;;;;;;;12.88;68.40;100421.72;10018158;29;20045;-87
2023/09/12 22:49:00;;;;;;;14.07;6.43;;;;;;;12.83;68.41;100434.75;10018613;29;20046;-87